Time;durP1;ratioP1;P1;durP2;ratioP2;P2;SDS_P1;SDS_P2;PMS_P1;PMS_P2;Temp;Humidity;BMP_temperature;BMP_pressure;BME280_temperature;BME280_humidity;BME280_pressure;Samples;Min_cycle;Max_cycle;Signal;HPM_P1;HPM_P2
2022/03/22 00:01:06;;;;;;;38.75;15.32;;;;;;;;;;4809054;29;20042;-82
2022/03/22 00:03:32;;;;;;;43.58;15.50;;;;;;;;;;4808298;29;20113;-82
2022/03/22 00:05:58;;;;;;;42.13;14.30;;;;;;;;;;4808695;29;20056;-82
2022/03/22 00:08:24;;;;;;;44.95;15.88;;;;;;;;;;4809035;29;20026;-84
2022/03/22 00:10:51;;;;;;;51.20;18.25;;;;;;;;;;4809189;29;20034;-84
2022/03/22 00:13:17;;;;;;;41.80;16.05;;;;;;;;;;4809450;29;20034;-84
2022/03/22 00:15:44;;;;;;;43.08;15.43;;;;;;;;;;4808626;29;20575;-82
2022/03/22 00:18:10;;;;;;;47.17;17.38;;;;;;;;;;4809229;29;20476;-84
2022/03/22 00:20:37;;;;;;;66.03;19.70;;;;;;;;;;4809521;29;20129;-84
2022/03/22 00:23:03;;;;;;;49.03;17.85;;;;;;;;;;4810059;29;20030;-85
2022/03/22 00:25:30;;;;;;;51.75;17.13;;;;;;;;;;4810270;29;20030;-84
2022/03/22 00:27:57;;;;;;;31.92;13.60;;;;;;;;;;4834666;29;20034;-84
2022/03/22 00:30:33;;;;;;;32.67;13.25;;;;;;;;;;4832617;29;20044;-88
2022/03/22 00:33:00;;;;;;;30.20;12.23;;;;;;;;;;4830222;29;20044;-90
2022/03/22 00:35:27;;;;;;;32.20;10.32;;;;;;;;;;4842136;29;20049;-87
2022/03/22 00:37:56;;;;;;;23.70;9.50;;;;;;;;;;4825358;29;20038;-83
2022/03/22 00:40:24;;;;;;;22.88;8.85;;;;;;;;;;4824965;29;20038;-84
2022/03/22 00:42:53;;;;;;;22.30;9.23;;;;;;;;;;4827888;29;20454;-85
2022/03/22 00:45:19;;;;;;;20.98;8.90;;;;;;;;;;4826783;29;20023;-85
2022/03/22 00:47:46;;;;;;;19.98;8.35;;;;;;;;;;4820046;29;20030;-83
2022/03/22 00:50:13;;;;;;;25.42;9.55;;;;;;;;;;4839188;29;20059;-85
2022/03/22 00:52:40;;;;;;;34.95;11.32;;;;;;;;;;4825632;29;20034;-84
2022/03/22 00:55:11;;;;;;;26.13;10.05;;;;;;;;;;4819089;29;20086;-89
2022/03/22 00:57:38;;;;;;;32.55;9.38;;;;;;;;;;4832130;29;20513;-87
2022/03/22 01:00:06;;;;;;;21.98;8.48;;;;;;;;;;4815510;29;20039;-85
2022/03/22 01:02:34;;;;;;;21.70;8.65;;;;;;;;;;4813796;29;20030;-84
2022/03/22 01:05:02;;;;;;;34.22;10.77;;;;;;;;;;4813991;29;20027;-84
2022/03/22 01:07:29;;;;;;;44.17;12.93;;;;;;;;;;4814674;29;20058;-85
2022/03/22 01:09:55;;;;;;;42.15;14.05;;;;;;;;;;4813945;29;20095;-84
2022/03/22 01:12:21;;;;;;;34.78;11.82;;;;;;;;;;4814100;29;20035;-84
2022/03/22 01:14:47;;;;;;;39.90;14.07;;;;;;;;;;4812679;29;20027;-84
2022/03/22 01:17:13;;;;;;;31.30;10.65;;;;;;;;;;4813423;29;20098;-84
2022/03/22 01:19:39;;;;;;;28.13;11.18;;;;;;;;;;4811357;29;20071;-84
2022/03/22 01:22:06;;;;;;;24.83;11.32;;;;;;;;;;4811106;29;20558;-82
2022/03/22 01:24:32;;;;;;;30.45;11.85;;;;;;;;;;4811909;29;20031;-83
2022/03/22 01:26:58;;;;;;;31.10;12.13;;;;;;;;;;4810607;29;20030;-84
2022/03/22 01:29:24;;;;;;;37.00;12.75;;;;;;;;;;4811107;29;20035;-84
2022/03/22 01:31:50;;;;;;;26.27;11.70;;;;;;;;;;4810766;29;20030;-84
2022/03/22 01:34:23;;;;;;;30.73;12.63;;;;;;;;;;4827465;29;20388;-89
2022/03/22 01:36:49;;;;;;;29.90;11.80;;;;;;;;;;4810809;29;20073;-84
2022/03/22 01:39:18;;;;;;;38.85;12.77;;;;;;;;;;4810693;29;20276;-84
2022/03/22 01:41:44;;;;;;;91.10;23.27;;;;;;;;;;4810481;29;20034;-84
2022/03/22 01:44:10;;;;;;;57.15;18.20;;;;;;;;;;4826305;29;20105;-83
2022/03/22 01:46:37;;;;;;;45.67;14.60;;;;;;;;;;4810446;29;20034;-82
2022/03/22 01:49:04;;;;;;;36.60;13.98;;;;;;;;;;4810503;29;20060;-83
2022/03/22 01:51:34;;;;;;;32.13;10.70;;;;;;;;;;4809801;29;20035;-87
2022/03/22 01:54:00;;;;;;;32.97;10.13;;;;;;;;;;4810807;29;20039;-83
2022/03/22 01:56:26;;;;;;;29.15;10.77;;;;;;;;;;4810671;29;20035;-84
2022/03/22 01:58:55;;;;;;;32.17;10.27;;;;;;;;;;4811179;29;20040;-83
2022/03/22 02:06:55;;;;;;;29.38;10.48;;;;;;;;;;4827233;29;20046;-85
2022/03/22 02:09:21;;;;;;;22.48;9.25;;;;;;;;;;4810656;29;20033;-84
2022/03/22 02:11:47;;;;;;;28.90;10.73;;;;;;;;;;4812655;29;20054;-85
2022/03/22 02:14:13;;;;;;;22.80;8.68;;;;;;;;;;4849389;29;20051;-83
2022/03/22 02:16:40;;;;;;;24.05;9.82;;;;;;;;;;4829706;29;20045;-84
2022/03/22 02:19:12;;;;;;;24.42;10.02;;;;;;;;;;4810274;29;20042;-85
2022/03/22 02:21:40;;;;;;;31.17;10.07;;;;;;;;;;4810016;29;20038;-83
2022/03/22 02:24:11;;;;;;;43.17;12.98;;;;;;;;;;4810640;29;20055;-83
2022/03/22 02:26:37;;;;;;;28.35;10.00;;;;;;;;;;4809566;29;20038;-89
2022/03/22 02:29:04;;;;;;;33.33;9.40;;;;;;;;;;4810085;29;20190;-83
2022/03/22 02:31:31;;;;;;;37.67;11.18;;;;;;;;;;4809755;29;20038;-83
2022/03/22 02:33:57;;;;;;;22.75;9.38;;;;;;;;;;4810017;29;20054;-83
2022/03/22 02:36:23;;;;;;;36.72;12.07;;;;;;;;;;4809442;29;20515;-84
2022/03/22 02:38:50;;;;;;;46.78;12.10;;;;;;;;;;4809850;29;20036;-83
2022/03/22 02:41:17;;;;;;;46.42;11.18;;;;;;;;;;4826060;29;20041;-85
2022/03/22 02:43:44;;;;;;;33.40;11.88;;;;;;;;;;4809866;29;20039;-83
2022/03/22 02:46:11;;;;;;;23.80;8.65;;;;;;;;;;4809826;29;20495;-83
2022/03/22 02:48:37;;;;;;;22.90;8.77;;;;;;;;;;4809198;29;20030;-84
2022/03/22 02:51:04;;;;;;;23.75;8.63;;;;;;;;;;4826129;29;20038;-83
2022/03/22 02:53:31;;;;;;;22.23;9.40;;;;;;;;;;4809410;29;20125;-84
2022/03/22 02:55:57;;;;;;;27.60;9.20;;;;;;;;;;4810012;29;20539;-83
2022/03/22 02:58:23;;;;;;;49.25;14.82;;;;;;;;;;4809258;29;20049;-83
2022/03/22 03:00:49;;;;;;;54.83;15.90;;;;;;;;;;4825583;29;20031;-88
2022/03/22 03:03:22;;;;;;;52.70;15.60;;;;;;;;;;4809412;29;20037;-82
2022/03/22 03:05:52;;;;;;;38.97;13.63;;;;;;;;;;4826143;29;20105;-88
2022/03/22 03:08:18;;;;;;;66.40;15.80;;;;;;;;;;4809192;29;20125;-81
2022/03/22 03:10:45;;;;;;;39.08;13.35;;;;;;;;;;4825549;29;20065;-88
2022/03/22 03:13:12;;;;;;;66.78;17.50;;;;;;;;;;4809067;29;20067;-83
2022/03/22 03:15:38;;;;;;;44.15;12.90;;;;;;;;;;4809315;29;20038;-82
2022/03/22 03:18:05;;;;;;;43.03;15.23;;;;;;;;;;4825353;29;20072;-85
2022/03/22 03:20:31;;;;;;;51.35;14.15;;;;;;;;;;4809156;29;20485;-83
2022/03/22 03:22:57;;;;;;;30.35;11.25;;;;;;;;;;4808601;29;20465;-84
2022/03/22 03:25:24;;;;;;;41.65;13.35;;;;;;;;;;4809238;29;20038;-84
2022/03/22 03:27:50;;;;;;;53.33;15.68;;;;;;;;;;4809347;29;20034;-84
2022/03/22 03:30:16;;;;;;;36.17;13.38;;;;;;;;;;4809759;29;20121;-84
2022/03/22 03:32:43;;;;;;;48.63;14.07;;;;;;;;;;4808768;29;20035;-84
2022/03/22 03:35:09;;;;;;;42.47;13.85;;;;;;;;;;4809616;29;20030;-85
2022/03/22 03:37:36;;;;;;;58.35;17.35;;;;;;;;;;4809105;29;20031;-88
2022/03/22 03:40:04;;;;;;;53.85;16.30;;;;;;;;;;4809058;29;20527;-84
2022/03/22 03:42:30;;;;;;;46.50;16.38;;;;;;;;;;4809206;29;20035;-83
2022/03/22 03:47:41;;;;;;;36.03;11.30;;;;;;;;;;4826063;29;20049;-83
2022/03/22 03:50:08;;;;;;;34.25;12.40;;;;;;;;;;4810140;29;20501;-83
2022/03/22 03:52:38;;;;;;;31.27;12.20;;;;;;;;;;4809088;29;20130;-89
2022/03/22 03:55:06;;;;;;;42.53;13.52;;;;;;;;;;4809056;29;20091;-82
2022/03/22 03:57:32;;;;;;;31.13;11.93;;;;;;;;;;4808892;29;20146;-83
2022/03/22 04:00:01;;;;;;;25.08;10.32;;;;;;;;;;4809163;29;20030;-83
2022/03/22 04:02:27;;;;;;;20.80;9.00;;;;;;;;;;4808730;29;20070;-84
2022/03/22 04:04:53;;;;;;;19.17;8.25;;;;;;;;;;4808875;29;20121;-83
2022/03/22 04:07:21;;;;;;;21.73;8.45;;;;;;;;;;4808710;29;20061;-82
2022/03/22 04:09:48;;;;;;;33.15;12.30;;;;;;;;;;4808657;29;20038;-83
2022/03/22 04:12:14;;;;;;;38.47;12.73;;;;;;;;;;4809818;29;20058;-86
2022/03/22 04:14:40;;;;;;;31.70;11.65;;;;;;;;;;4808719;29;20515;-90
2022/03/22 04:17:10;;;;;;;37.38;14.13;;;;;;;;;;4828136;29;20125;-84
2022/03/22 04:19:36;;;;;;;29.25;12.57;;;;;;;;;;4812303;29;20030;-83
2022/03/22 04:22:04;;;;;;;32.13;12.80;;;;;;;;;;4828622;29;20039;-85
2022/03/22 04:24:30;;;;;;;27.25;11.10;;;;;;;;;;4812204;29;20038;-82
2022/03/22 04:32:41;;;;;;;24.67;11.32;;;;;;;;;;4812706;29;20026;-85
2022/03/22 04:32:42;;;;;;;21.13;7.88;;;;;;;;;;4827991;29;20037;-83
2022/03/22 04:35:08;;;;;;;28.27;9.90;;;;;;;;;;4835503;29;20033;-85
2022/03/22 04:37:34;;;;;;;22.92;9.05;;;;;;;;;;4822589;29;20031;-84
2022/03/22 04:40:00;;;;;;;29.35;12.55;;;;;;;;;;4813838;29;20045;-85
2022/03/22 04:42:26;;;;;;;40.53;14.60;;;;;;;;;;4811760;29;20473;-85
2022/03/22 04:44:53;;;;;;;36.53;13.10;;;;;;;;;;4811870;29;20041;-85
2022/03/22 04:47:19;;;;;;;32.90;11.57;;;;;;;;;;4812319;29;20030;-86
2022/03/22 04:49:45;;;;;;;30.25;10.00;;;;;;;;;;4811293;29;20074;-84
2022/03/22 04:57:44;;;;;;;26.23;9.90;;;;;;;;;;4828009;29;20436;-85
2022/03/22 05:00:16;;;;;;;38.78;12.52;;;;;;;;;;4811550;29;20038;-81
2022/03/22 05:02:42;;;;;;;24.55;10.15;;;;;;;;;;4810623;29;20030;-84
2022/03/22 05:05:11;;;;;;;29.10;10.95;;;;;;;;;;4811135;29;20114;-87
2022/03/22 05:07:40;;;;;;;23.67;9.55;;;;;;;;;;4811478;29;20038;-85
2022/03/22 05:10:06;;;;;;;20.30;8.73;;;;;;;;;;4811887;29;20030;-84
2022/03/22 05:12:34;;;;;;;22.88;8.70;;;;;;;;;;4811230;29;20061;-84
2022/03/22 05:15:00;;;;;;;21.08;8.85;;;;;;;;;;4810810;29;20037;-84
2022/03/22 05:17:26;;;;;;;27.75;8.82;;;;;;;;;;4810768;29;20121;-82
2022/03/22 05:19:52;;;;;;;16.85;8.10;;;;;;;;;;4811719;29;20026;-85
2022/03/22 05:22:19;;;;;;;33.90;10.70;;;;;;;;;;4811324;29;20034;-82
2022/03/22 05:24:48;;;;;;;22.80;8.90;;;;;;;;;;4810563;29;20069;-82
2022/03/22 05:27:15;;;;;;;26.05;9.30;;;;;;;;;;4809333;29;20034;-84
2022/03/22 05:29:42;;;;;;;18.45;8.60;;;;;;;;;;4810796;29;20031;-82
2022/03/22 05:32:08;;;;;;;27.45;10.30;;;;;;;;;;4827242;29;20426;-83
2022/03/22 05:34:35;;;;;;;19.85;8.82;;;;;;;;;;4810281;29;20041;-84
2022/03/22 05:37:07;;;;;;;26.25;9.90;;;;;;;;;;4810297;29;20063;-86
2022/03/22 05:39:33;;;;;;;22.27;10.07;;;;;;;;;;4810185;29;20041;-84
2022/03/22 05:41:59;;;;;;;19.55;9.45;;;;;;;;;;4811539;29;20038;-83
2022/03/22 05:44:25;;;;;;;24.10;10.10;;;;;;;;;;4811359;29;20027;-86
2022/03/22 05:46:51;;;;;;;26.67;10.20;;;;;;;;;;4811116;29;20038;-85
2022/03/22 05:49:18;;;;;;;20.38;10.18;;;;;;;;;;4811023;29;20054;-86
2022/03/22 05:51:44;;;;;;;33.50;13.18;;;;;;;;;;4810979;29;20523;-86
2022/03/22 05:54:10;;;;;;;42.72;18.98;;;;;;;;;;4811149;29;20045;-84
2022/03/22 05:56:45;;;;;;;41.28;20.73;;;;;;;;;;4827424;29;20129;-86
2022/03/22 05:59:13;;;;;;;31.08;14.30;;;;;;;;;;4826455;29;20523;-83
2022/03/22 06:01:40;;;;;;;26.85;13.02;;;;;;;;;;4810122;29;20035;-84
2022/03/22 06:04:09;;;;;;;36.10;13.63;;;;;;;;;;4809880;29;20042;-82
2022/03/22 06:06:35;;;;;;;21.05;10.57;;;;;;;;;;4810246;29;20031;-81
2022/03/22 06:09:01;;;;;;;26.50;12.20;;;;;;;;;;4827675;29;20094;-85
2022/03/22 06:11:29;;;;;;;17.70;7.30;;;;;;;;;;4808171;29;20030;-78
2022/03/22 06:13:55;;;;;;;15.90;7.05;;;;;;;;;;4826527;29;20063;-81
2022/03/22 06:16:21;;;;;;;15.65;6.28;;;;;;;;;;4810160;29;20080;-81
2022/03/22 06:18:50;;;;;;;22.67;7.35;;;;;;;;;;4809913;29;20037;-84
2022/03/22 06:21:16;;;;;;;18.60;7.50;;;;;;;;;;4809990;29;20434;-81
2022/03/22 06:23:47;;;;;;;16.52;7.15;;;;;;;;;;4810213;29;20030;-82
2022/03/22 06:26:16;;;;;;;16.77;7.40;;;;;;;;;;4810297;29;20038;-82
2022/03/22 06:28:50;;;;;;;22.27;8.23;;;;;;;;;;4810317;29;20038;-93
2022/03/22 06:31:16;;;;;;;;;;;;;;;;;;4814104;29;20366;-85
2022/03/22 06:33:54;;;;;;;17.10;8.23;;;;;;;;;;4813379;29;19909;-91
2022/03/22 06:36:30;;;;;;;22.40;9.60;;;;;;;;;;4812701;29;20043;-85
2022/03/22 06:38:59;;;;;;;25.70;10.57;;;;;;;;;;4809981;29;20037;-88
2022/03/22 06:41:25;;;;;;;23.45;9.93;;;;;;;;;;4811283;29;20034;-88
2022/03/22 06:43:51;;;;;;;18.88;9.23;;;;;;;;;;4809971;29;20075;-87
2022/03/22 06:46:18;;;;;;;20.63;9.43;;;;;;;;;;4809962;29;20034;-86
2022/03/22 06:48:44;;;;;;;17.35;8.63;;;;;;;;;;4809646;29;20034;-86
2022/03/22 06:51:10;;;;;;;20.00;9.90;;;;;;;;;;4809860;29;20038;-89
2022/03/22 06:53:36;;;;;;;24.05;10.73;;;;;;;;;;4811715;29;20053;-89
2022/03/22 06:56:03;;;;;;;15.38;8.85;;;;;;;;;;4809848;29;20492;-84
2022/03/22 06:58:36;;;;;;;25.92;10.10;;;;;;;;;;4809516;29;20445;-86
2022/03/22 07:01:02;;;;;;;;;;;;;;;;;;4811216;29;20121;-84
2022/03/22 07:03:28;;;;;;;17.92;9.55;;;;;;;;;;4808675;29;20390;-85
2022/03/22 07:05:55;;;;;;;25.50;12.40;;;;;;;;;;4811289;29;20030;-85
2022/03/22 07:08:22;;;;;;;17.98;10.27;;;;;;;;;;4810492;29;20766;-84
2022/03/22 07:11:49;;;;;;;19.70;9.50;;;;;;;;;;4809802;29;20041;-85
2022/03/22 07:13:34;;;;;;;20.27;10.23;;;;;;;;;;4828288;29;20037;-84
2022/03/22 07:16:02;;;;;;;12.45;6.72;;;;;;;;;;4810544;29;20042;-85
2022/03/22 07:18:28;;;;;;;13.40;6.68;;;;;;;;;;4810070;29;20034;-84
2022/03/22 07:21:04;;;;;;;11.32;6.65;;;;;;;;;;4811400;29;20038;-87
2022/03/22 07:23:30;;;;;;;12.18;6.55;;;;;;;;;;4811379;29;20485;-83
2022/03/22 07:25:56;;;;;;;12.05;6.82;;;;;;;;;;4826857;29;20037;-87
2022/03/22 07:28:22;;;;;;;11.68;6.10;;;;;;;;;;4812404;29;20030;-85
2022/03/22 07:30:48;;;;;;;11.75;6.40;;;;;;;;;;4812149;29;20508;-85
2022/03/22 07:33:17;;;;;;;13.40;6.10;;;;;;;;;;4828116;29;20023;-89
2022/03/22 07:35:43;;;;;;;20.23;10.23;;;;;;;;;;4812941;29;20038;-90
2022/03/22 07:38:09;;;;;;;16.65;8.65;;;;;;;;;;4812618;29;20034;-89
2022/03/22 07:40:35;;;;;;;12.27;6.03;;;;;;;;;;4829807;29;20038;-88
2022/03/22 07:43:02;;;;;;;10.75;5.93;;;;;;;;;;4811366;29;20469;-89
2022/03/22 07:45:31;;;;;;;10.23;5.78;;;;;;;;;;4811439;29;20030;-89
2022/03/22 07:48:00;;;;;;;13.23;6.65;;;;;;;;;;4810554;29;20038;-87
2022/03/22 07:53:10;;;;;;;11.95;6.07;;;;;;;;;;4830900;29;20121;-85
2022/03/22 07:55:37;;;;;;;13.43;6.55;;;;;;;;;;4813443;29;20078;-89
2022/03/22 07:58:07;;;;;;;13.35;6.03;;;;;;;;;;4813541;29;20045;-85
2022/03/22 08:00:41;;;;;;;13.63;5.65;;;;;;;;;;4814202;29;20034;-90
2022/03/22 08:03:15;;;;;;;11.32;5.95;;;;;;;;;;4818918;29;20057;-89
2022/03/22 08:05:42;;;;;;;12.82;5.93;;;;;;;;;;4832457;29;20033;-88
2022/03/22 08:08:12;;;;;;;16.48;6.05;;;;;;;;;;4828251;29;20038;-91
2022/03/22 08:10:38;;;;;;;12.68;6.25;;;;;;;;;;4816963;29;20034;-87
2022/03/22 08:13:08;;;;;;;10.00;5.78;;;;;;;;;;4817714;29;20045;-89
2022/03/22 08:15:34;;;;;;;12.07;6.03;;;;;;;;;;4829638;29;20026;-89
2022/03/22 08:18:00;;;;;;;11.70;6.00;;;;;;;;;;4812811;29;20044;-93
2022/03/22 08:20:27;;;;;;;10.98;5.50;;;;;;;;;;4812802;29;20065;-91
2022/03/22 08:22:59;;;;;;;10.07;5.53;;;;;;;;;;4812868;29;20045;-89
2022/03/22 08:25:30;;;;;;;9.55;5.88;;;;;;;;;;4812679;29;20037;-91
2022/03/22 08:28:06;;;;;;;11.80;6.25;;;;;;;;;;4811723;29;20038;-91
2022/03/22 08:30:37;;;;;;;11.55;5.88;;;;;;;;;;4812821;29;20126;-89
2022/03/22 08:33:07;;;;;;;12.63;5.10;;;;;;;;;;4812153;29;20066;-91
2022/03/22 08:35:34;;;;;;;10.55;5.35;;;;;;;;;;4812402;29;20053;-91
2022/03/22 08:38:00;;;;;;;13.57;5.80;;;;;;;;;;4812708;29;20519;-92
2022/03/22 08:43:55;;;;;;;14.23;5.25;;;;;;;;;;4790882;30;20566;-94
2022/03/22 08:46:30;;;;;;;12.60;6.18;;;;;;;;;;4812130;29;20052;-92
2022/03/22 08:48:56;;;;;;;10.40;5.47;;;;;;;;;;4813899;29;20055;-87
2022/03/22 08:51:25;;;;;;;10.95;5.93;;;;;;;;;;4812145;29;20076;-91
2022/03/22 08:53:55;;;;;;;10.52;5.65;;;;;;;;;;4814628;29;20041;-89
2022/03/22 08:56:24;;;;;;;10.77;5.50;;;;;;;;;;4811011;29;20089;-93
2022/03/22 08:58:53;;;;;;;9.45;5.60;;;;;;;;;;4827407;29;20065;-90
2022/03/22 09:01:27;;;;;;;10.18;5.35;;;;;;;;;;4811636;29;20026;-92
2022/03/22 09:06:44;;;;;;;9.68;5.47;;;;;;;;;;4829650;29;20094;-93
2022/03/22 09:09:13;;;;;;;11.15;5.43;;;;;;;;;;4812704;29;20030;-91
2022/03/22 09:11:39;;;;;;;10.93;5.15;;;;;;;;;;4828836;29;20034;-87
2022/03/22 09:14:06;;;;;;;9.90;5.22;;;;;;;;;;4813536;29;20055;-93
2022/03/22 09:16:32;;;;;;;9.57;5.25;;;;;;;;;;4812100;29;20077;-86
2022/03/22 09:18:59;;;;;;;9.32;4.78;;;;;;;;;;4812021;29;20038;-87
2022/03/22 09:21:43;;;;;;;;;;;;;;;;;;;;;
2022/03/22 09:24:10;;;;;;;16.48;6.68;;;;;;;;;;4828440;29;20033;-85
2022/03/22 09:26:36;;;;;;;9.95;5.57;;;;;;;;;;4812154;29;20099;-82
2022/03/22 09:29:02;;;;;;;12.70;5.85;;;;;;;;;;4811486;29;20026;-83
2022/03/22 09:31:28;;;;;;;10.55;5.55;;;;;;;;;;4812064;29;20031;-81
2022/03/22 09:33:56;;;;;;;13.02;7.18;;;;;;;;;;4812899;29;20030;-83
2022/03/22 09:36:22;;;;;;;11.43;6.40;;;;;;;;;;4811497;29;20469;-87
2022/03/22 09:38:50;;;;;;;14.38;6.35;;;;;;;;;;4811078;29;20129;-93
2022/03/22 09:41:17;;;;;;;12.85;5.85;;;;;;;;;;4812606;29;20116;-85
2022/03/22 09:43:48;;;;;;;10.38;6.20;;;;;;;;;;4811470;29;20062;-87
2022/03/22 09:46:19;;;;;;;12.10;6.13;;;;;;;;;;4828943;29;20094;-83
2022/03/22 09:49:00;;;;;;;16.80;5.63;;;;;;;;;;4812341;29;20133;-91
2022/03/22 09:51:45;;;;;;;13.07;6.00;;;;;;;;;;4827427;29;20086;-83
2022/03/22 09:54:12;;;;;;;10.13;5.65;;;;;;;;;;4828330;29;20030;-89
2022/03/22 09:56:43;;;;;;;14.60;5.90;;;;;;;;;;4814567;29;20035;-89
2022/03/22 09:59:14;;;;;;;12.57;6.72;;;;;;;;;;4810884;29;20477;-91
2022/03/22 10:01:41;;;;;;;13.73;6.88;;;;;;;;;;4809662;29;20062;-82
2022/03/22 10:04:09;;;;;;;13.00;5.88;;;;;;;;;;4811906;29;20086;-86
2022/03/22 10:06:35;;;;;;;12.60;6.38;;;;;;;;;;4816139;29;20074;-86
2022/03/22 10:09:08;;;;;;;12.18;6.45;;;;;;;;;;4836213;24;20061;-94
2022/03/22 10:11:35;;;;;;;12.77;6.78;;;;;;;;;;4829302;29;20037;-84
2022/03/22 10:14:01;;;;;;;12.50;6.45;;;;;;;;;;4828357;29;20034;-84
2022/03/22 10:16:28;;;;;;;14.60;6.70;;;;;;;;;;4829805;29;20038;-83
2022/03/22 10:18:54;;;;;;;10.52;5.95;;;;;;;;;;4828858;29;20121;-83
2022/03/22 10:21:21;;;;;;;13.18;6.70;;;;;;;;;;4828128;29;20125;-88
2022/03/22 10:23:56;;;;;;;13.55;7.35;;;;;;;;;;4828309;29;20029;-82
2022/03/22 10:26:33;;;;;;;14.13;6.78;;;;;;;;;;4830541;29;20034;-83
2022/03/22 10:28:59;;;;;;;13.38;7.05;;;;;;;;;;4831211;29;20029;-88
2022/03/22 10:31:38;;;;;;;13.27;7.38;;;;;;;;;;4832381;29;20045;-87
2022/03/22 10:34:16;;;;;;;12.27;6.88;;;;;;;;;;5118502;27;20376;-90
2022/03/22 10:36:49;;;;;;;12.85;6.60;;;;;;;;;;5120254;28;20032;-88
2022/03/22 10:39:21;;;;;;;10.82;6.70;;;;;;;;;;5119548;28;20573;-91
2022/03/22 10:41:53;;;;;;;13.77;7.57;;;;;;;;;;5120558;28;20031;-87
2022/03/22 10:44:28;;;;;;;11.73;7.18;;;;;;;;;;5119933;28;20043;-89
2022/03/22 10:46:57;;;;;;;14.75;7.47;;;;;;;;;;5120845;28;20034;-90
2022/03/22 10:49:41;;;;;;;14.00;7.65;;;;;;;;;;5121892;28;20036;-89
2022/03/22 10:52:09;;;;;;;17.88;7.57;;;;;;;;;;5115832;28;20019;-87
2022/03/22 10:54:40;;;;;;;19.55;6.70;;;;;;;;;;5114911;28;20039;-86
2022/03/22 10:57:08;;;;;;;13.18;7.50;;;;;;;;;;5116985;28;20020;-88
2022/03/22 10:59:35;;;;;;;11.27;6.47;;;;;;;;;;5113458;28;20024;-87
2022/03/22 11:02:17;;;;;;;12.52;6.78;;;;;;;;;;5118983;28;20084;-91
2022/03/22 11:04:56;;;;;;;11.02;6.15;;;;;;;;;;5113032;28;20024;-92
2022/03/22 11:07:28;;;;;;;14.43;7.40;;;;;;;;;;5116654;28;20091;-88
2022/03/22 11:10:10;;;;;;;17.38;6.60;;;;;;;;;;5097753;28;20518;-91
2022/03/22 11:12:51;;;;;;;12.15;6.22;;;;;;;;;;5094548;28;20083;-91
2022/03/22 11:15:18;;;;;;;12.95;7.15;;;;;;;;;;5093773;28;20020;-88
2022/03/22 11:17:48;;;;;;;12.13;7.13;;;;;;;;;;5092447;28;20030;-86
2022/03/22 11:20:18;;;;;;;14.57;7.22;;;;;;;;;;5092184;28;20059;-94
2022/03/22 11:23:11;;;;;;;11.23;6.05;;;;;;;;;;5097390;28;20028;-89
2022/03/22 11:25:38;;;;;;;13.20;6.40;;;;;;;;;;5110449;28;20040;-91
2022/03/22 11:28:17;;;;;;;13.85;7.10;;;;;;;;;;5098968;28;20032;-89
2022/03/22 11:37:04;;;;;;;11.05;6.10;;;;;;;;;;5081585;28;20062;-86
2022/03/22 11:57:40;;;;;;;10.98;5.10;;;;;;;;;;5193403;23;20059;-95
2022/03/22 12:00:14;;;;;;;11.52;5.40;;;;;;;;;;4967688;28;20066;-93
2022/03/22 12:02:44;;;;;;;11.65;5.20;;;;;;;;;;4966422;29;20079;-93
2022/03/22 12:05:11;;;;;;;9.82;4.22;;;;;;;;;;4965474;29;20035;-89
2022/03/22 12:07:39;;;;;;;8.00;4.30;;;;;;;;;;4962210;29;20058;-90
2022/03/22 12:10:08;;;;;;;8.10;4.28;;;;;;;;;;4957083;29;20032;-95
2022/03/22 12:12:38;;;;;;;12.05;4.70;;;;;;;;;;4950177;29;20046;-94
2022/03/22 12:15:17;;;;;;;9.02;4.70;;;;;;;;;;4960113;28;20050;-92
2022/03/22 12:17:44;;;;;;;10.40;4.95;;;;;;;;;;4964263;28;20108;-90
2022/03/22 12:20:22;;;;;;;10.95;4.90;;;;;;;;;;4961392;28;20027;-94
2022/03/22 12:23:06;;;;;;;10.30;4.90;;;;;;;;;;4960905;28;20035;-92
2022/03/22 12:25:40;;;;;;;14.65;5.03;;;;;;;;;;4934575;29;20484;-94
2022/03/22 12:28:07;;;;;;;;;;;;;;;;;;4959618;28;20027;-92
2022/03/22 12:30:38;;;;;;;13.88;5.28;;;;;;;;;;4960651;28;19975;-88
2022/03/22 12:33:10;;;;;;;9.32;4.78;;;;;;;;;;4961529;28;20554;-88
2022/03/22 12:35:37;;;;;;;9.40;4.40;;;;;;;;;;4964876;28;20056;-87
2022/03/22 12:38:06;;;;;;;12.15;5.40;;;;;;;;;;4964105;29;20031;-90
2022/03/22 12:43:37;;;;;;;10.27;5.25;;;;;;;;;;4941877;29;20051;-91
2022/03/22 12:46:03;;;;;;;9.63;4.97;;;;;;;;;;4939112;29;20035;-88
2022/03/22 12:48:50;;;;;;;12.38;5.97;;;;;;;;;;4941412;29;20028;-90
2022/03/22 12:51:17;;;;;;;10.73;4.70;;;;;;;;;;4927524;29;20036;-87
2022/03/22 12:53:43;;;;;;;7.60;4.15;;;;;;;;;;4941575;29;20040;-89
2022/03/22 12:56:20;;;;;;;10.05;5.20;;;;;;;;;;4939674;29;20095;-90
2022/03/22 12:58:50;;;;;;;7.82;4.60;;;;;;;;;;4940683;29;20052;-88
2022/03/22 13:01:21;;;;;;;8.30;4.30;;;;;;;;;;4940795;29;20027;-89
2022/03/22 13:03:47;;;;;;;12.45;5.75;;;;;;;;;;4942781;29;20488;-88
2022/03/22 13:06:17;;;;;;;12.43;5.05;;;;;;;;;;4939030;28;20128;-89
2022/03/22 13:11:29;;;;;;;10.05;4.82;;;;;;;;;;4939165;29;20110;-91
2022/03/22 13:16:40;;;;;;;9.35;4.45;;;;;;;;;;4939552;29;20027;-88
2022/03/22 13:19:07;;;;;;;10.40;5.28;;;;;;;;;;4937679;29;20036;-90
2022/03/22 13:21:37;;;;;;;10.68;4.45;;;;;;;;;;4937861;29;20020;-92
2022/03/22 13:24:07;;;;;;;8.43;4.60;;;;;;;;;;4937745;29;20035;-90
2022/03/22 13:26:34;;;;;;;9.63;4.43;;;;;;;;;;4937210;29;20074;-89
2022/03/22 13:29:13;;;;;;;17.65;5.47;;;;;;;;;;4937985;29;20037;-90
2022/03/22 13:31:40;;;;;;;11.20;4.75;;;;;;;;;;4936779;29;20187;-89
2022/03/22 13:34:06;;;;;;;9.68;3.95;;;;;;;;;;4936961;28;20051;-91
2022/03/22 13:36:32;;;;;;;9.65;4.38;;;;;;;;;;4938017;28;20469;-92
2022/03/22 13:39:02;;;;;;;12.93;5.35;;;;;;;;;;4938060;28;20038;-91
2022/03/22 13:41:30;;;;;;;10.40;4.60;;;;;;;;;;4937957;28;20032;-90
2022/03/22 13:43:56;;;;;;;8.27;4.55;;;;;;;;;;4937906;28;20054;-91
2022/03/22 13:46:22;;;;;;;10.70;5.00;;;;;;;;;;4937697;29;20031;-90
2022/03/22 13:48:51;;;;;;;10.63;4.43;;;;;;;;;;4938983;28;20099;-92
2022/03/22 13:51:21;;;;;;;10.98;4.78;;;;;;;;;;4937768;29;20365;-88
2022/03/22 13:53:48;;;;;;;10.07;4.60;;;;;;;;;;4936989;28;20449;-90
2022/03/22 13:56:15;;;;;;;8.95;4.78;;;;;;;;;;4936837;29;20027;-89
2022/03/22 13:58:43;;;;;;;14.40;4.43;;;;;;;;;;4936987;28;20134;-89
2022/03/22 14:01:13;;;;;;;9.32;4.47;;;;;;;;;;4937585;29;20034;-87
2022/03/22 14:03:40;;;;;;;10.30;5.03;;;;;;;;;;4936527;29;20027;-85
2022/03/22 14:06:07;;;;;;;9.82;5.30;;;;;;;;;;4937316;28;20031;-85
2022/03/22 14:08:34;;;;;;;9.43;4.72;;;;;;;;;;4938233;29;20493;-90
2022/03/22 14:11:04;;;;;;;8.52;5.00;;;;;;;;;;4938716;28;20452;-90
2022/03/22 14:13:34;;;;;;;11.07;4.65;;;;;;;;;;4936766;28;20488;-92
2022/03/22 14:16:00;;;;;;;8.68;4.38;;;;;;;;;;4937313;28;20050;-93
2022/03/22 14:18:26;;;;;;;9.13;4.32;;;;;;;;;;4938019;28;20030;-93
2022/03/22 14:20:53;;;;;;;13.07;4.97;;;;;;;;;;4939718;28;20039;-89
2022/03/22 14:23:20;;;;;;;12.60;5.22;;;;;;;;;;4938017;28;20119;-91
2022/03/22 14:25:47;;;;;;;19.67;5.18;;;;;;;;;;4937622;28;20019;-92
2022/03/22 14:28:13;;;;;;;7.75;4.45;;;;;;;;;;4937225;28;20031;-90
2022/03/22 14:30:40;;;;;;;11.32;5.10;;;;;;;;;;4937244;28;20370;-91
2022/03/22 14:33:10;;;;;;;11.88;4.45;;;;;;;;;;4937239;29;20370;-89
2022/03/22 14:35:52;;;;;;;11.45;4.88;;;;;;;;;;4947761;28;20027;-89
2022/03/22 14:38:18;;;;;;;10.65;4.75;;;;;;;;;;4943395;28;20081;-89
2022/03/22 14:40:45;;;;;;;7.38;4.32;;;;;;;;;;4956758;28;20035;-88
2022/03/22 14:43:11;;;;;;;8.02;4.55;;;;;;;;;;4956702;28;20024;-90
2022/03/22 14:45:38;;;;;;;9.50;4.65;;;;;;;;;;4956555;28;20463;-91
2022/03/22 14:48:05;;;;;;;9.07;4.93;;;;;;;;;;4955947;28;20067;-90
2022/03/22 14:50:31;;;;;;;9.32;4.25;;;;;;;;;;4960043;28;20070;-88
2022/03/22 14:55:43;;;;;;;11.85;4.38;;;;;;;;;;4971094;29;20085;-91
2022/03/22 15:00:54;;;;;;;15.40;5.45;;;;;;;;;;4958041;29;20042;-89
2022/03/22 15:03:32;;;;;;;13.55;4.78;;;;;;;;;;4936859;29;20864;-93
2022/03/22 15:06:03;;;;;;;10.82;4.80;;;;;;;;;;4953153;29;20476;-90
2022/03/22 15:08:31;;;;;;;12.07;4.13;;;;;;;;;;4953076;28;20035;-90
2022/03/22 15:10:57;;;;;;;12.57;4.78;;;;;;;;;;4937731;28;20028;-89
2022/03/22 15:13:25;;;;;;;10.15;4.78;;;;;;;;;;4936873;29;20035;-89
2022/03/22 15:15:51;;;;;;;9.48;4.47;;;;;;;;;;4936645;28;20055;-88
2022/03/22 15:18:18;;;;;;;11.98;4.68;;;;;;;;;;4938681;28;20032;-88
2022/03/22 15:20:45;;;;;;;7.82;4.10;;;;;;;;;;4942720;28;20038;-90
2022/03/22 15:23:20;;;;;;;11.70;4.50;;;;;;;;;;4940216;28;20028;-89
2022/03/22 15:25:47;;;;;;;9.63;4.72;;;;;;;;;;4939627;29;20127;-89
2022/03/22 15:28:18;;;;;;;8.52;4.30;;;;;;;;;;4940657;28;20031;-90
2022/03/22 15:30:44;;;;;;;9.48;4.95;;;;;;;;;;4939981;28;20083;-88
2022/03/22 15:33:14;;;;;;;8.73;4.15;;;;;;;;;;4939545;28;20063;-87
2022/03/22 15:35:41;;;;;;;8.82;4.53;;;;;;;;;;4939228;28;20066;-86
2022/03/22 15:38:08;;;;;;;12.00;5.80;;;;;;;;;;4939547;29;20476;-87
2022/03/22 15:40:34;;;;;;;10.15;4.65;;;;;;;;;;4940327;28;20054;-89